Time;durP1;ratioP1;P1;durP2;ratioP2;P2;SDS_P1;SDS_P2;PMS_P1;PMS_P2;Temp;Humidity;BMP_temperature;BMP_pressure;BME280_temperature;BME280_humidity;BME280_pressure;Samples;Min_cycle;Max_cycle;Signal;HPM_P1;HPM_P2
2021/10/16 00:01:29;;;;;;;15.73;8.68;;;;;;;12.56;59.45;98891.13;5052153;28;20400;-51
2021/10/16 00:03:54;;;;;;;14.35;8.90;;;;;;;12.58;59.27;98891.72;5052180;28;20398;-51
2021/10/16 00:06:20;;;;;;;14.90;9.68;;;;;;;12.61;58.87;98880.75;5034525;28;20021;-51
2021/10/16 00:08:46;;;;;;;14.43;9.68;;;;;;;12.71;58.82;98886.41;5052122;28;20029;-51
2021/10/16 00:11:13;;;;;;;13.98;9.07;;;;;;;12.80;58.76;98892.25;5052093;28;20074;-51
2021/10/16 00:13:41;;;;;;;14.32;10.00;;;;;;;12.75;58.14;98887.59;5052645;28;20036;-51
2021/10/16 00:16:09;;;;;;;15.85;10.05;;;;;;;12.58;58.36;98884.63;5052188;28;20021;-51
2021/10/16 00:18:35;;;;;;;13.98;8.88;;;;;;;12.51;58.80;98893.56;5052009;28;20025;-51
2021/10/16 00:21:01;;;;;;;12.98;8.35;;;;;;;12.39;58.49;98888.13;5034053;28;20035;-51
2021/10/16 00:23:27;;;;;;;17.70;9.48;;;;;;;12.25;59.06;98897.06;5051843;28;20036;-51
2021/10/16 00:25:53;;;;;;;11.88;9.32;;;;;;;12.07;58.85;98893.25;5033883;28;20025;-51
2021/10/16 00:28:19;;;;;;;15.07;10.25;;;;;;;11.87;59.61;98900.31;5051806;28;20027;-51
2021/10/16 00:30:45;;;;;;;16.65;10.18;;;;;;;11.65;59.78;98899.72;5051792;28;20017;-51
2021/10/16 00:33:11;;;;;;;12.02;9.68;;;;;;;11.42;60.11;98903.53;5033875;28;20036;-51
2021/10/16 00:35:36;;;;;;;10.18;8.13;;;;;;;11.22;60.29;98897.44;5051745;28;20526;-51
2021/10/16 00:38:02;;;;;;;13.90;9.80;;;;;;;10.83;60.21;98902.41;5051724;28;20029;-51
2021/10/16 00:40:28;;;;;;;12.27;9.05;;;;;;;10.39;61.21;98908.84;5033772;28;20021;-51
2021/10/16 00:42:55;;;;;;;16.13;9.88;;;;;;;10.08;62.22;98904.81;5051628;28;20036;-51
2021/10/16 00:45:23;;;;;;;15.63;10.77;;;;;;;9.87;62.89;98905.66;5049796;28;20057;-51
2021/10/16 00:47:49;;;;;;;18.30;10.50;;;;;;;9.74;64.00;98909.00;5051061;28;20045;-51
2021/10/16 00:50:17;;;;;;;14.50;10.73;;;;;;;9.65;64.52;98904.88;5051555;28;20044;-52
2021/10/16 00:52:43;;;;;;;13.32;10.27;;;;;;;9.55;64.28;98901.75;5051559;28;20059;-51
2021/10/16 00:55:12;;;;;;;15.05;10.77;;;;;;;9.51;64.64;98903.13;5051551;28;20025;-51
2021/10/16 00:57:38;;;;;;;16.10;10.13;;;;;;;9.50;64.84;98912.00;5051551;28;20021;-51
2021/10/16 01:00:06;;;;;;;15.80;10.07;;;;;;;9.57;65.15;98916.28;5051462;28;20487;-51
2021/10/16 01:02:32;;;;;;;13.65;10.30;;;;;;;9.64;64.98;98912.91;5050073;28;20112;-51
2021/10/16 01:04:59;;;;;;;13.80;9.75;;;;;;;9.65;65.38;98915.34;5033472;28;20083;-51
2021/10/16 01:07:26;;;;;;;20.90;10.18;;;;;;;9.68;65.36;98901.06;5051383;28;20040;-51
2021/10/16 01:09:52;;;;;;;19.25;11.07;;;;;;;9.68;65.22;98904.50;5051420;28;20025;-52
2021/10/16 01:12:18;;;;;;;16.90;10.15;;;;;;;9.69;65.97;98906.09;5051332;28;20437;-51
2021/10/16 01:14:52;;;;;;;12.88;10.15;;;;;;;9.69;65.61;98913.16;5051383;28;20090;-51
2021/10/16 01:17:18;;;;;;;16.98;9.70;;;;;;;9.61;65.11;98906.25;5049981;28;20036;-50
2021/10/16 01:19:45;;;;;;;14.10;9.43;;;;;;;9.65;65.35;98907.50;5033419;28;20025;-51
2021/10/16 01:22:12;;;;;;;19.35;10.13;;;;;;;9.79;65.41;98901.34;5033264;28;20514;-52
2021/10/16 01:24:39;;;;;;;14.77;9.77;;;;;;;9.91;65.00;98896.41;5033404;28;20106;-51
2021/10/16 01:27:06;;;;;;;17.80;10.07;;;;;;;9.98;64.78;98902.50;5051189;28;20520;-51
2021/10/16 01:29:34;;;;;;;13.15;10.32;;;;;;;10.18;64.59;98897.41;5051218;28;20025;-51
2021/10/16 01:32:02;;;;;;;16.98;9.57;;;;;;;10.42;64.62;98894.53;5049854;28;20025;-52
2021/10/16 01:34:29;;;;;;;21.88;10.80;;;;;;;10.66;64.21;98895.84;5051268;28;20083;-51
2021/10/16 01:36:55;;;;;;;14.68;9.25;;;;;;;10.95;64.04;98902.66;5049858;28;20025;-51
2021/10/16 01:39:22;;;;;;;11.63;8.75;;;;;;;11.25;62.90;98892.63;5051122;28;20090;-51
2021/10/16 01:41:48;;;;;;;13.57;8.15;;;;;;;11.43;62.21;98894.66;5051052;28;20017;-52
2021/10/16 01:44:15;;;;;;;11.75;9.40;;;;;;;11.37;61.68;98888.38;5033183;28;20048;-52
2021/10/16 01:46:42;;;;;;;13.63;9.13;;;;;;;11.31;61.69;98893.66;5051105;28;20078;-52
2021/10/16 01:49:10;;;;;;;13.98;9.13;;;;;;;11.26;61.94;98891.59;5026349;28;20050;-51
2021/10/16 01:51:36;;;;;;;11.10;9.32;;;;;;;11.23;61.85;98894.63;5011441;28;20046;-52
2021/10/16 01:54:03;;;;;;;14.15;9.05;;;;;;;11.16;61.87;98896.44;5010078;28;20570;-51
2021/10/16 01:56:29;;;;;;;14.85;9.77;;;;;;;11.10;61.79;98891.97;5011438;28;20109;-52
2021/10/16 01:58:55;;;;;;;12.88;8.90;;;;;;;10.99;62.14;98893.38;5012903;28;20026;-52
2021/10/16 02:01:21;;;;;;;12.50;9.10;;;;;;;10.92;62.22;98887.28;5014853;28;20025;-52
2021/10/16 02:03:46;;;;;;;14.02;9.63;;;;;;;10.88;62.51;98892.09;5014751;28;20109;-51
2021/10/16 02:06:12;;;;;;;11.52;9.23;;;;;;;10.84;62.58;98890.88;5013389;28;20526;-51
2021/10/16 02:08:38;;;;;;;22.77;10.77;;;;;;;10.80;62.55;98892.28;5014760;28;20037;-51
2021/10/16 02:11:05;;;;;;;16.63;11.95;;;;;;;10.66;62.70;98890.59;5013323;28;20053;-51
2021/10/16 02:13:31;;;;;;;16.10;10.32;;;;;;;10.58;62.69;98892.41;5013319;28;20559;-51
2021/10/16 02:15:57;;;;;;;17.17;10.60;;;;;;;10.49;62.93;98898.81;5014566;28;20022;-51
2021/10/16 02:18:22;;;;;;;14.00;10.68;;;;;;;10.37;63.12;98897.75;5013265;28;20030;-51
2021/10/16 02:20:48;;;;;;;17.13;10.75;;;;;;;10.29;63.44;98903.13;5014492;28;20057;-51
2021/10/16 02:23:14;;;;;;;13.73;10.07;;;;;;;10.22;63.81;98903.06;5013016;28;20496;-51
2021/10/16 02:25:39;;;;;;;11.75;9.25;;;;;;;10.23;64.01;98896.81;5013115;28;20033;-51
2021/10/16 02:28:05;;;;;;;13.40;10.27;;;;;;;10.26;64.13;98899.06;5014358;28;20030;-51
2021/10/16 02:30:32;;;;;;;13.45;9.70;;;;;;;10.30;63.98;98902.97;5013014;28;20022;-52
2021/10/16 02:32:57;;;;;;;17.83;10.57;;;;;;;10.29;63.99;98905.75;5014329;28;20404;-51
2021/10/16 02:35:23;;;;;;;16.70;10.35;;;;;;;10.27;63.89;98898.06;5014199;28;20022;-51
2021/10/16 02:37:49;;;;;;;16.70;10.30;;;;;;;10.15;63.50;98905.66;5014210;28;20037;-51
2021/10/16 02:40:15;;;;;;;19.67;11.10;;;;;;;9.96;63.83;98914.19;5014122;28;20017;-51
2021/10/16 02:42:41;;;;;;;16.92;10.82;;;;;;;9.79;63.64;98914.47;5012682;28;20408;-51
2021/10/16 02:45:08;;;;;;;20.67;11.20;;;;;;;9.63;64.45;98908.69;5012666;28;20060;-51
2021/10/16 02:47:34;;;;;;;13.05;10.13;;;;;;;9.48;64.37;98911.38;5016224;28;20033;-51
2021/10/16 02:50:00;;;;;;;14.25;11.32;;;;;;;9.28;64.32;98905.94;5052329;28;20037;-52
2021/10/16 02:52:26;;;;;;;14.90;10.98;;;;;;;9.17;64.76;98908.03;5053524;28;20025;-51
2021/10/16 02:54:53;;;;;;;17.23;11.35;;;;;;;9.16;65.21;98908.25;5052235;28;20082;-51
2021/10/16 02:57:18;;;;;;;14.30;9.95;;;;;;;9.20;65.39;98901.63;5053451;28;20032;-52
2021/10/16 02:59:44;;;;;;;14.18;10.50;;;;;;;9.17;65.51;98907.22;5035571;28;20491;-52
2021/10/16 03:02:10;;;;;;;15.32;10.68;;;;;;;9.10;65.18;98914.22;5053285;28;20017;-51
2021/10/16 03:04:36;;;;;;;19.80;11.70;;;;;;;8.99;65.99;98911.09;5035430;28;20024;-51
2021/10/16 03:07:02;;;;;;;15.68;10.90;;;;;;;8.90;65.81;98906.94;5052237;28;20025;-51
2021/10/16 03:09:27;;;;;;;12.75;10.82;;;;;;;8.78;66.15;98905.81;5034938;28;20036;-51
2021/10/16 03:11:53;;;;;;;14.82;11.50;;;;;;;8.62;66.51;98906.81;5035289;28;20430;-52
2021/10/16 03:14:19;;;;;;;14.88;11.75;;;;;;;8.49;66.79;98904.84;5053201;28;20136;-51
2021/10/16 03:16:45;;;;;;;12.85;11.05;;;;;;;8.44;67.78;98909.00;5035227;28;20029;-51
2021/10/16 03:19:11;;;;;;;16.17;12.55;;;;;;;8.38;68.01;98906.06;5035190;28;20104;-51
2021/10/16 03:21:37;;;;;;;14.82;11.25;;;;;;;8.48;68.99;98902.41;5053048;28;20108;-52
2021/10/16 03:24:03;;;;;;;15.93;12.00;;;;;;;8.54;68.33;98899.06;5034974;28;20494;-51
2021/10/16 03:26:29;;;;;;;15.20;10.68;;;;;;;8.58;67.98;98903.75;5035018;28;20112;-51
2021/10/16 03:28:54;;;;;;;15.57;11.45;;;;;;;8.63;68.21;98905.00;5052912;28;20518;-51
2021/10/16 03:31:20;;;;;;;17.42;12.05;;;;;;;8.70;68.22;98901.47;5052835;28;20025;-52
2021/10/16 03:33:46;;;;;;;20.13;12.07;;;;;;;8.83;68.23;98907.88;5052817;28;20055;-51
2021/10/16 03:36:12;;;;;;;18.35;10.88;;;;;;;8.89;67.94;98910.53;5052738;28;20013;-52
2021/10/16 03:38:37;;;;;;;22.00;10.68;;;;;;;8.96;67.58;98914.06;5052728;28;20485;-51
2021/10/16 03:41:03;;;;;;;12.85;10.70;;;;;;;8.95;67.01;98916.88;5034661;28;20036;-51
2021/10/16 03:43:32;;;;;;;16.85;10.45;;;;;;;8.85;67.23;98917.16;5034605;28;20035;-52
2021/10/16 03:45:57;;;;;;;17.92;10.48;;;;;;;8.83;67.18;98919.13;5052549;28;20025;-51
2021/10/16 03:48:23;;;;;;;16.58;11.52;;;;;;;8.83;67.40;98928.81;5052246;28;20091;-51
2021/10/16 03:50:49;;;;;;;15.18;11.48;;;;;;;8.79;67.55;98923.94;5052408;28;20041;-51
2021/10/16 03:53:16;;;;;;;18.08;11.57;;;;;;;8.85;67.50;98932.84;5052427;28;20108;-51
2021/10/16 03:55:42;;;;;;;15.23;12.05;;;;;;;8.91;67.44;98920.84;5052356;28;20021;-50
2021/10/16 03:58:07;;;;;;;13.50;9.85;;;;;;;8.95;67.04;98928.16;5052251;28;20534;-51
2021/10/16 04:00:33;;;;;;;15.93;10.77;;;;;;;8.97;67.28;98928.78;5034368;28;20033;-51
2021/10/16 04:03:04;;;;;;;13.48;9.75;;;;;;;8.98;67.09;98922.53;5050867;28;20036;-51
2021/10/16 04:05:30;;;;;;;18.88;10.35;;;;;;;8.92;66.92;98928.50;5052282;28;20146;-51
2021/10/16 04:07:56;;;;;;;20.85;11.05;;;;;;;8.85;67.17;98929.44;5052165;28;20017;-52
2021/10/16 04:10:22;;;;;;;23.38;10.18;;;;;;;9.06;67.51;98924.25;5052159;28;20032;-51
2021/10/16 04:12:47;;;;;;;16.73;10.23;;;;;;;9.60;67.01;98926.41;5052158;28;20021;-51
2021/10/16 04:15:13;;;;;;;19.85;11.40;;;;;;;9.87;65.20;98926.63;5052060;28;20376;-51
2021/10/16 04:17:39;;;;;;;17.48;11.00;;;;;;;9.87;64.41;98931.88;5034132;28;20025;-51
2021/10/16 04:20:06;;;;;;;13.45;10.68;;;;;;;9.78;64.48;98936.44;5051125;28;20025;-50
2021/10/16 04:22:31;;;;;;;16.50;10.30;;;;;;;9.71;64.45;98937.38;5033964;28;20017;-51
2021/10/16 04:24:58;;;;;;;13.73;10.75;;;;;;;9.67;64.40;98925.66;5050624;28;20025;-51
2021/10/16 04:27:24;;;;;;;15.23;9.88;;;;;;;9.58;64.20;98933.63;5051808;28;20052;-51
2021/10/16 04:29:50;;;;;;;14.23;10.45;;;;;;;9.45;64.68;98933.50;5033925;28;20029;-51
2021/10/16 04:32:17;;;;;;;17.30;10.38;;;;;;;9.39;64.79;98924.56;5051737;28;20036;-51
2021/10/16 04:34:43;;;;;;;13.75;10.32;;;;;;;9.48;65.66;98922.66;5051782;28;20028;-51
2021/10/16 04:37:09;;;;;;;16.00;12.55;;;;;;;9.63;65.56;98929.66;5050414;28;20025;-51
2021/10/16 04:39:35;;;;;;;20.80;12.38;;;;;;;9.83;65.62;98929.81;5051735;28;20079;-51
2021/10/16 04:42:01;;;;;;;14.93;11.75;;;;;;;10.02;65.22;98923.94;5051631;28;20032;-51
2021/10/16 04:44:26;;;;;;;12.60;11.27;;;;;;;10.16;64.86;98919.56;5051656;28;20103;-51
2021/10/16 04:46:53;;;;;;;16.75;10.73;;;;;;;10.17;64.42;98927.25;5033723;28;20039;-50
2021/10/16 04:49:19;;;;;;;16.83;10.30;;;;;;;10.41;64.16;98932.28;5051298;28;20094;-51
2021/10/16 04:51:44;;;;;;;14.20;11.30;;;;;;;10.53;63.02;98925.47;5051537;28;20025;-51
2021/10/16 04:54:10;;;;;;;12.13;10.43;;;;;;;10.48;62.94;98926.03;5050253;28;20021;-51
2021/10/16 04:56:36;;;;;;;17.17;11.65;;;;;;;10.43;62.74;98928.44;5051538;28;20026;-51
2021/10/16 04:59:02;;;;;;;14.73;11.38;;;;;;;10.24;62.71;98929.94;5050169;28;20025;-51
2021/10/16 05:01:28;;;;;;;18.73;12.25;;;;;;;10.11;63.33;98932.44;5051457;28;20017;-51
2021/10/16 05:03:53;;;;;;;13.32;11.15;;;;;;;10.07;63.78;98937.25;5051370;28;20407;-51
2021/10/16 05:06:20;;;;;;;15.10;10.27;;;;;;;9.98;63.84;98930.56;5051454;28;20096;-51
2021/10/16 05:08:46;;;;;;;16.25;12.15;;;;;;;9.88;64.01;98937.91;5051465;28;20075;-50
2021/10/16 05:11:12;;;;;;;15.48;10.23;;;;;;;9.79;64.47;98938.03;5051405;28;20017;-51
2021/10/16 05:13:38;;;;;;;17.30;11.73;;;;;;;9.80;64.63;98937.06;5051424;28;20563;-51
2021/10/16 05:16:04;;;;;;;14.20;10.73;;;;;;;9.85;64.75;98936.50;5051344;28;20437;-51
2021/10/16 05:18:31;;;;;;;15.73;10.57;;;;;;;9.86;64.57;98935.50;5051997;28;20128;-51
2021/10/16 05:20:57;;;;;;;13.45;10.65;;;;;;;9.86;64.27;98935.50;5033441;28;20025;-51
2021/10/16 05:23:24;;;;;;;17.75;11.10;;;;;;;9.87;64.45;98936.31;5051202;28;20568;-51
2021/10/16 05:25:51;;;;;;;15.05;10.80;;;;;;;9.84;64.48;98942.75;5049994;28;20120;-51
2021/10/16 05:28:20;;;;;;;18.90;11.90;;;;;;;9.84;64.49;98949.78;5051281;28;20040;-51
2021/10/16 05:30:46;;;;;;;16.25;11.25;;;;;;;9.88;64.58;98943.16;5049891;28;20025;-51
2021/10/16 05:33:12;;;;;;;20.05;11.85;;;;;;;9.99;64.68;98947.91;5054804;28;20043;-51
2021/10/16 05:35:43;;;;;;;15.90;11.18;;;;;;;10.11;64.68;98941.13;5055030;28;20015;-51
2021/10/16 05:38:10;;;;;;;17.48;10.70;;;;;;;10.22;64.02;98941.59;5055005;28;20140;-51
2021/10/16 05:40:36;;;;;;;14.60;11.13;;;;;;;10.21;64.02;98943.41;5054929;28;20024;-51
2021/10/16 05:43:02;;;;;;;17.33;10.20;;;;;;;10.35;64.38;98944.34;5053497;28;20100;-52
2021/10/16 05:45:27;;;;;;;15.68;11.00;;;;;;;10.49;63.68;98935.53;5036888;28;20017;-50
2021/10/16 05:47:53;;;;;;;13.27;10.85;;;;;;;10.49;63.35;98937.38;5053239;28;20021;-51
2021/10/16 05:50:19;;;;;;;14.70;11.02;;;;;;;10.50;63.53;98945.06;5036866;28;20040;-50
2021/10/16 05:52:45;;;;;;;17.00;12.27;;;;;;;10.54;63.54;98948.09;5054683;28;20549;-51
2021/10/16 05:55:10;;;;;;;19.35;12.27;;;;;;;10.63;63.60;98933.81;5054974;28;20503;-52
2021/10/16 05:57:36;;;;;;;15.45;12.90;;;;;;;10.90;63.54;98936.53;5054659;28;20053;-51
2021/10/16 06:00:04;;;;;;;19.73;14.52;;;;;;;11.03;63.65;98933.16;5054514;28;20450;-51
2021/10/16 06:02:30;;;;;;;22.80;15.50;;;;;;;11.31;63.22;98941.75;5054463;28;20021;-51
2021/10/16 06:04:56;;;;;;;23.67;15.88;;;;;;;11.72;62.94;98942.59;5054455;28;20032;-51
2021/10/16 06:07:21;;;;;;;24.02;17.15;;;;;;;11.92;62.26;98929.50;5054394;28;20071;-52
2021/10/16 06:09:47;;;;;;;22.50;17.08;;;;;;;11.93;62.04;98937.19;5054368;28;20075;-52
2021/10/16 06:12:13;;;;;;;20.88;16.05;;;;;;;11.92;61.85;98935.56;5054348;28;20029;-51
2021/10/16 06:14:38;;;;;;;22.33;15.95;;;;;;;11.99;61.85;98939.00;5036335;28;20024;-51
2021/10/16 06:17:04;;;;;;;21.58;16.05;;;;;;;12.01;61.83;98941.41;5052976;28;20418;-52
2021/10/16 06:19:30;;;;;;;24.13;17.77;;;;;;;11.97;61.95;98942.84;5054203;28;20081;-52
2021/10/16 06:21:56;;;;;;;28.30;17.90;;;;;;;12.06;61.53;98952.16;5054015;28;20029;-51
2021/10/16 06:24:22;;;;;;;29.30;17.75;;;;;;;12.14;61.37;98951.94;5054141;28;20513;-52
2021/10/16 06:26:48;;;;;;;24.27;16.92;;;;;;;12.17;61.70;98953.34;5052757;28;20086;-52
2021/10/16 06:29:14;;;;;;;21.50;16.75;;;;;;;12.25;61.04;98955.75;5053987;28;20025;-52
2021/10/16 06:31:40;;;;;;;25.67;16.35;;;;;;;12.00;61.07;98966.13;5052658;28;20074;-51
2021/10/16 06:34:07;;;;;;;26.17;17.52;;;;;;;11.84;61.72;98964.66;5053922;28;20017;-52
2021/10/16 06:36:33;;;;;;;29.58;20.83;;;;;;;11.92;62.27;98966.31;5053856;28;20150;-51
2021/10/16 06:38:59;;;;;;;24.33;18.10;;;;;;;12.00;61.56;98966.13;5053734;28;20406;-51
2021/10/16 06:41:25;;;;;;;31.02;21.27;;;;;;;12.04;61.57;98964.69;5053802;28;20376;-51
2021/10/16 06:43:51;;;;;;;23.85;17.08;;;;;;;12.12;61.72;98968.94;5034924;28;20111;-51
2021/10/16 06:46:17;;;;;;;34.13;18.02;;;;;;;12.22;61.70;98981.69;5035767;28;20070;-51
2021/10/16 06:48:43;;;;;;;33.28;18.00;;;;;;;12.39;61.27;98978.44;5053412;28;20580;-52
2021/10/16 06:51:09;;;;;;;25.98;17.83;;;;;;;12.38;60.95;98971.56;5053529;28;20029;-51
2021/10/16 06:53:35;;;;;;;23.95;17.23;;;;;;;12.59;60.46;98974.94;5053630;28;20051;-51
2021/10/16 06:56:00;;;;;;;25.48;18.88;;;;;;;12.55;60.01;98974.53;5053444;28;20068;-51
2021/10/16 06:58:27;;;;;;;38.63;19.85;;;;;;;11.97;60.85;98975.22;5053485;28;20511;-51
2021/10/16 07:00:52;;;;;;;29.80;19.85;;;;;;;11.58;61.80;98975.94;5053420;28;20017;-51
2021/10/16 07:03:18;;;;;;;27.02;19.73;;;;;;;11.49;62.22;98982.38;5053374;28;20017;-51
2021/10/16 07:05:44;;;;;;;27.63;20.17;;;;;;;11.47;62.54;98985.25;5053302;28;20025;-51
2021/10/16 07:08:10;;;;;;;28.30;20.83;;;;;;;11.45;62.89;98984.63;5052013;28;20048;-52
2021/10/16 07:10:39;;;;;;;31.83;19.13;;;;;;;11.42;63.57;98986.84;5035400;28;20032;-51
2021/10/16 07:13:08;;;;;;;32.53;19.67;;;;;;;11.32;63.48;98988.00;5035314;28;20079;-51
2021/10/16 07:15:34;;;;;;;29.02;21.17;;;;;;;11.37;63.28;98988.25;5053143;28;20024;-51
2021/10/16 07:18:00;;;;;;;29.88;20.80;;;;;;;11.47;63.03;98994.91;5035210;28;20029;-50
2021/10/16 07:20:25;;;;;;;28.30;21.70;;;;;;;11.45;63.26;99002.19;5053064;28;20028;-52
2021/10/16 07:22:51;;;;;;;31.25;21.27;;;;;;;11.41;63.44;98999.19;5034977;28;20032;-51
2021/10/16 07:25:17;;;;;;;34.70;21.40;;;;;;;11.38;63.24;99003.00;5052967;28;20056;-51
2021/10/16 07:27:45;;;;;;;38.58;22.95;;;;;;;11.21;63.95;99001.72;5052928;28;20391;-51
2021/10/16 07:30:11;;;;;;;36.03;26.70;;;;;;;11.36;63.93;99012.88;5052869;28;20029;-51
2021/10/16 07:32:37;;;;;;;30.17;21.45;;;;;;;11.35;63.77;99013.09;5034952;28;20037;-51
2021/10/16 07:35:03;;;;;;;32.67;20.13;;;;;;;11.44;63.73;99006.66;5034832;28;20032;-51
2021/10/16 07:37:32;;;;;;;28.50;20.80;;;;;;;11.52;63.24;99009.09;5034869;28;20029;-52
2021/10/16 07:39:58;;;;;;;30.70;20.77;;;;;;;11.57;63.31;99009.31;5052726;28;20126;-51
2021/10/16 07:42:23;;;;;;;32.58;22.63;;;;;;;11.63;63.07;99009.53;5034677;28;20501;-51
2021/10/16 07:44:52;;;;;;;31.08;21.63;;;;;;;11.67;62.64;99008.13;5052601;28;20021;-51
2021/10/16 07:47:18;;;;;;;26.92;20.42;;;;;;;11.81;63.08;99009.75;5052530;28;20484;-51
2021/10/16 07:49:44;;;;;;;29.25;20.98;;;;;;;11.93;62.41;99010.00;5031121;28;20065;-51
2021/10/16 07:52:10;;;;;;;36.95;23.45;;;;;;;11.94;62.03;99012.44;5032554;28;20101;-51
2021/10/16 07:54:36;;;;;;;33.25;22.98;;;;;;;11.83;62.28;99014.81;5032481;28;20029;-51
2021/10/16 07:57:01;;;;;;;38.50;22.77;;;;;;;11.65;62.68;99015.38;5032475;28;20022;-51
2021/10/16 07:59:28;;;;;;;34.50;21.92;;;;;;;11.66;63.32;99019.66;5032475;28;20053;-51
2021/10/16 08:01:56;;;;;;;27.30;21.10;;;;;;;11.73;62.98;99023.94;5032243;28;20029;-50
2021/10/16 08:04:23;;;;;;;29.13;20.58;;;;;;;11.77;62.82;99027.78;5032395;28;20018;-51
2021/10/16 08:06:49;;;;;;;27.58;19.77;;;;;;;11.79;62.61;99024.91;5032369;28;20026;-52
2021/10/16 08:09:14;;;;;;;27.08;19.35;;;;;;;11.86;62.42;99023.13;5031076;28;20164;-52
2021/10/16 08:11:40;;;;;;;27.33;20.02;;;;;;;12.29;62.16;99029.84;5032311;28;20665;-51
2021/10/16 08:14:06;;;;;;;27.80;20.40;;;;;;;12.71;60.58;99025.97;5032246;28;20025;-51
2021/10/16 08:16:32;;;;;;;31.70;20.45;;;;;;;12.70;59.96;99027.00;5032171;28;20032;-51
2021/10/16 08:18:59;;;;;;;21.45;17.48;;;;;;;12.59;60.52;99024.97;5032160;28;20395;-52
2021/10/16 08:21:25;;;;;;;23.65;19.15;;;;;;;12.64;59.69;99029.66;5030841;28;20105;-51
2021/10/16 08:23:55;;;;;;;24.33;18.45;;;;;;;12.61;59.91;99030.84;5032473;28;20469;-51
2021/10/16 08:26:21;;;;;;;20.00;17.40;;;;;;;12.61;60.49;99028.22;5031973;28;20017;-51
2021/10/16 08:28:48;;;;;;;24.67;16.05;;;;;;;12.89;60.29;99027.94;5031961;28;20029;-51
2021/10/16 08:31:15;;;;;;;21.75;16.85;;;;;;;13.27;58.71;99026.41;5031960;28;20025;-51
2021/10/16 08:33:41;;;;;;;24.05;17.35;;;;;;;13.44;58.14;99035.50;5031973;28;20129;-51
2021/10/16 08:36:07;;;;;;;26.92;18.10;;;;;;;13.49;57.72;99035.66;5031864;28;20096;-51
2021/10/16 08:38:33;;;;;;;23.17;17.33;;;;;;;13.62;57.71;99040.06;5030552;28;20026;-52
2021/10/16 08:40:59;;;;;;;20.40;16.92;;;;;;;13.62;57.26;99036.63;5030739;28;20495;-51
2021/10/16 08:43:25;;;;;;;25.00;17.60;;;;;;;13.62;57.08;99041.91;5031713;28;20075;-51
2021/10/16 08:45:51;;;;;;;22.15;17.33;;;;;;;13.58;57.25;99044.13;5031704;28;20079;-51
2021/10/16 08:48:18;;;;;;;22.75;17.98;;;;;;;13.46;57.29;99044.03;5036271;28;20131;-51
2021/10/16 08:50:47;;;;;;;26.70;18.40;;;;;;;13.25;57.62;99050.34;5051531;28;20037;-51
2021/10/16 08:53:13;;;;;;;21.95;18.80;;;;;;;13.07;58.21;99051.00;5051610;28;20029;-51
2021/10/16 08:55:40;;;;;;;26.77;18.38;;;;;;;13.09;58.72;99048.97;5051542;28;20032;-52
2021/10/16 08:58:06;;;;;;;22.17;18.05;;;;;;;13.45;58.23;99049.50;5050263;28;20032;-51
2021/10/16 09:00:51;;;;;;;24.73;18.52;;;;;;;13.83;57.32;99053.97;5051834;28;20031;-51
2021/10/16 09:03:18;;;;;;;27.20;18.90;;;;;;;13.99;56.75;99058.72;5051502;28;20083;-51
2021/10/16 09:06:03;;;;;;;24.52;19.85;;;;;;;13.76;56.82;99056.63;5051494;28;20104;-51
2021/10/16 09:08:48;;;;;;;26.00;19.90;;;;;;;13.71;56.93;99051.19;5055596;28;20025;-51
2021/10/16 09:11:27;;;;;;;25.08;19.95;;;;;;;13.84;56.98;99055.56;5055487;28;20021;-51
2021/10/16 09:14:13;;;;;;;27.58;19.40;;;;;;;13.99;56.84;99056.91;5055482;28;20037;-51
2021/10/16 09:16:45;;;;;;;;;;;;;;;14.07;56.61;99066.41;5055923;28;20040;-51
2021/10/16 09:19:21;;;;;;;23.85;19.48;;;;;;;13.90;56.68;99063.44;5055379;28;19912;-51
2021/10/16 09:21:47;;;;;;;27.23;20.60;;;;;;;13.94;56.48;99063.81;5055334;28;20025;-51
2021/10/16 09:24:19;;;;;;;29.90;20.45;;;;;;;13.92;56.82;99066.69;5053844;28;20557;-52
2021/10/16 09:26:49;;;;;;;24.58;19.48;;;;;;;14.06;56.77;99069.22;5037249;28;20029;-51
2021/10/16 09:29:17;;;;;;;25.52;19.88;;;;;;;14.30;56.02;99072.94;5055154;28;20510;-51
2021/10/16 09:31:52;;;;;;;25.20;19.52;;;;;;;14.37;55.70;99065.78;5055130;28;20135;-51
2021/10/16 09:34:30;;;;;;;24.10;19.58;;;;;;;14.33;55.49;99068.03;5055130;28;20021;-52
2021/10/16 09:37:17;;;;;;;24.13;18.48;;;;;;;14.38;56.05;99064.72;5053717;28;20116;-51
2021/10/16 09:39:49;;;;;;;23.75;19.17;;;;;;;14.57;55.21;99065.63;5037058;28;20029;-52
2021/10/16 09:42:30;;;;;;;24.95;19.52;;;;;;;14.42;55.24;99071.19;5054830;28;20025;-51
2021/10/16 09:45:02;;;;;;;29.80;20.77;;;;;;;14.34;55.66;99067.00;5054921;28;20033;-51
2021/10/16 09:47:27;;;;;;;26.48;19.73;;;;;;;14.05;55.78;99059.72;5054845;28;20087;-52
2021/10/16 09:50:02;;;;;;;25.80;20.17;;;;;;;13.87;56.70;99063.88;5054587;28;20522;-51
2021/10/16 09:52:41;;;;;;;24.40;18.80;;;;;;;14.34;56.28;99067.00;5054888;28;20037;-51
2021/10/16 09:55:10;;;;;;;26.55;19.85;;;;;;;14.73;54.87;99062.44;5054741;28;20082;-52
2021/10/16 09:57:37;;;;;;;22.85;18.85;;;;;;;14.88;54.62;99062.06;5054683;28;20521;-52
2021/10/16 10:00:05;;;;;;;22.33;18.25;;;;;;;15.08;54.43;99053.13;5054539;28;20119;-51
2021/10/16 10:02:32;;;;;;;25.67;18.88;;;;;;;15.35;53.73;99050.97;5053200;28;20376;-52
2021/10/16 10:05:01;;;;;;;24.55;20.58;;;;;;;15.53;52.67;99052.78;5054490;28;20025;-52
2021/10/16 10:07:27;;;;;;;23.27;19.80;;;;;;;15.18;53.38;99053.44;5020411;28;20434;-51
2021/10/16 10:09:57;;;;;;;22.58;19.42;;;;;;;15.33;53.51;99051.22;5036341;28;20045;-51
2021/10/16 10:12:25;;;;;;;22.30;18.90;;;;;;;15.63;52.82;99052.25;5054446;28;20029;-51
2021/10/16 10:14:53;;;;;;;21.95;19.17;;;;;;;15.73;52.31;99040.13;5036376;28;20029;-51
2021/10/16 10:17:26;;;;;;;23.35;19.05;;;;;;;15.85;52.00;99044.66;5053984;28;20024;-52
2021/10/16 10:20:10;;;;;;;24.05;19.83;;;;;;;16.03;51.76;99041.16;5053571;28;20024;-52
2021/10/16 10:22:37;;;;;;;22.17;18.58;;;;;;;16.15;51.31;99045.41;5054179;28;20021;-51
2021/10/16 10:25:20;;;;;;;25.48;19.75;;;;;;;16.04;51.21;99048.88;5036152;28;20415;-51
2021/10/16 10:27:46;;;;;;;21.63;19.02;;;;;;;16.05;51.29;99044.38;5054025;28;20063;-52
2021/10/16 10:30:33;;;;;;;24.20;18.58;;;;;;;16.07;51.14;99042.31;5054020;28;20029;-52
2021/10/16 10:33:20;;;;;;;22.80;19.20;;;;;;;16.05;51.09;99031.13;5052507;28;20147;-51
2021/10/16 10:35:58;;;;;;;23.25;18.55;;;;;;;15.55;51.74;99045.44;5053910;28;20025;-51
2021/10/16 10:38:36;;;;;;;22.70;18.30;;;;;;;15.54;52.21;99041.19;5053935;28;20032;-51
2021/10/16 10:41:23;;;;;;;21.60;18.33;;;;;;;15.73;52.00;99031.41;5054130;28;20025;-51
2021/10/16 10:43:52;;;;;;;20.33;17.50;;;;;;;15.88;51.57;99039.75;5053716;28;20132;-51
2021/10/16 10:46:26;;;;;;;20.02;17.88;;;;;;;16.07;51.13;99037.81;5053781;28;20065;-50
2021/10/16 10:48:51;;;;;;;21.65;16.83;;;;;;;16.04;51.14;99038.28;5052189;28;20045;-52
2021/10/16 10:51:38;;;;;;;20.98;17.65;;;;;;;16.31;50.88;99033.34;5053631;28;20408;-52
2021/10/16 10:54:20;;;;;;;21.83;17.23;;;;;;;16.73;50.15;99038.56;5053614;28;20402;-51
2021/10/16 10:56:58;;;;;;;20.58;18.23;;;;;;;16.93;49.22;99026.81;5053584;28;20029;-51
2021/10/16 10:59:24;;;;;;;20.45;16.65;;;;;;;16.85;49.09;99035.91;5053543;28;20037;-51
2021/10/16 11:02:01;;;;;;;21.08;16.27;;;;;;;16.86;49.30;99031.41;5053447;28;20024;-50
2021/10/16 11:04:44;;;;;;;21.50;17.38;;;;;;;17.04;48.91;99030.47;5053435;28;20036;-51
2021/10/16 11:07:14;;;;;;;24.00;21.33;;;;;;;17.24;48.16;99030.06;5053361;28;20032;-50
2021/10/16 11:09:41;;;;;;;20.27;16.60;;;;;;;17.54;48.14;99024.56;5052011;28;20021;-51
2021/10/16 11:12:12;;;;;;;20.73;16.45;;;;;;;17.93;47.18;99022.09;5053242;28;20028;-51
2021/10/16 11:14:40;;;;;;;21.02;16.63;;;;;;;18.38;46.04;99020.41;5053228;28;20029;-52
2021/10/16 11:17:09;;;;;;;20.90;16.50;;;;;;;18.83;45.63;99020.25;5051817;28;20116;-52
2021/10/16 11:19:47;;;;;;;22.75;16.65;;;;;;;19.45;44.46;99018.34;5051788;28;20090;-51
2021/10/16 11:22:13;;;;;;;22.40;17.98;;;;;;;20.35;43.15;99015.97;5053009;28;20032;-49
2021/10/16 11:24:40;;;;;;;17.15;15.30;;;;;;;22.18;39.87;99016.06;5053052;28;20395;-50